createdAt,value
2022-08-19T00:00:16.056Z,22.08
2022-08-19T00:03:22.169Z,21.99
2022-08-19T00:06:32.453Z,21.93
2022-08-19T00:09:38.608Z,21.84
2022-08-19T00:12:48.169Z,21.83
2022-08-19T00:16:00.634Z,21.77
2022-08-19T00:19:06.939Z,21.66
2022-08-19T00:22:13.076Z,21.52
2022-08-19T00:25:30.039Z,21.43
2022-08-19T00:28:49.614Z,21.35
2022-08-19T00:31:56.621Z,21.33
2022-08-19T00:35:03.584Z,21.28
2022-08-19T00:38:09.283Z,21.16
2022-08-19T00:41:17.204Z,21.10
2022-08-19T00:44:27.133Z,21.00
2022-08-19T00:47:33.295Z,20.89
2022-08-19T00:50:51.881Z,20.81
2022-08-19T00:54:10.963Z,20.84
2022-08-19T00:57:21.718Z,20.84
2022-08-19T01:00:29.802Z,20.77
2022-08-19T01:03:58.121Z,20.75
2022-08-19T01:07:04.606Z,20.69
2022-08-19T01:10:14.097Z,20.65
2022-08-19T01:13:23.552Z,20.67
2022-08-19T01:16:30.952Z,20.66
2022-08-19T01:19:43.932Z,20.61
2022-08-19T01:22:58.411Z,20.57
2022-08-19T01:26:04.267Z,20.56
2022-08-19T01:29:10.444Z,20.53
2022-08-19T01:32:33.178Z,20.40
2022-08-19T01:35:47.165Z,20.38
2022-08-19T01:38:54.160Z,20.38
2022-08-19T01:41:59.802Z,20.36
2022-08-19T01:45:09.159Z,20.34
2022-08-19T01:48:15.976Z,20.22
2022-08-19T01:51:22.307Z,20.22
2022-08-19T01:54:28.532Z,20.13
2022-08-19T01:57:34.753Z,20.11
2022-08-19T02:00:40.832Z,20.07
2022-08-19T02:03:47.657Z,20.03
2022-08-19T02:06:53.879Z,20.01
2022-08-19T02:10:00.253Z,19.96
2022-08-19T02:13:09.737Z,19.90
2022-08-19T02:16:18.326Z,19.86
2022-08-19T02:19:24.286Z,19.81
2022-08-19T02:22:30.467Z,19.80
2022-08-19T02:25:36.080Z,19.80
2022-08-19T02:28:44.330Z,19.70
2022-08-19T02:31:50.259Z,19.65
2022-08-19T02:34:56.329Z,19.69
2022-08-19T02:38:22.396Z,19.67
2022-08-19T02:41:31.352Z,19.67
2022-08-19T02:44:37.053Z,19.60
2022-08-19T02:47:43.383Z,19.58
2022-08-19T02:50:53.640Z,19.56
2022-08-19T02:54:01.659Z,19.53
2022-08-19T02:57:07.983Z,19.54
2022-08-19T03:00:15.036Z,19.54
2022-08-19T03:03:21.507Z,19.49
2022-08-19T03:06:27.320Z,19.46
2022-08-19T03:09:33.272Z,19.44
2022-08-19T03:12:40.575Z,19.37
2022-08-19T03:15:48.580Z,19.37
2022-08-19T03:18:55.898Z,19.34
2022-08-19T03:22:02.405Z,19.32
2022-08-19T03:25:09.085Z,19.25
2022-08-19T03:28:16.893Z,19.25
2022-08-19T03:31:43.318Z,19.31
2022-08-19T03:34:55.449Z,19.30
2022-08-19T03:38:01.727Z,19.28
2022-08-19T03:41:10.075Z,19.25
2022-08-19T03:44:18.416Z,19.22
2022-08-19T03:47:24.850Z,19.22
2022-08-19T03:50:31.358Z,19.26
2022-08-19T03:53:37.481Z,19.24
2022-08-19T03:56:44.829Z,19.28
2022-08-19T03:59:51.124Z,19.27
2022-08-19T04:02:58.718Z,19.32
2022-08-19T04:06:16.300Z,19.34
2022-08-19T04:09:22.499Z,19.28
2022-08-19T04:12:28.815Z,19.33
2022-08-19T04:15:41.206Z,19.37
2022-08-19T04:18:47.713Z,19.37
2022-08-19T04:21:55.464Z,19.43
2022-08-19T04:25:01.308Z,19.46
2022-08-19T04:28:07.601Z,19.51
2022-08-19T04:31:18.821Z,19.57
2022-08-19T04:34:27.622Z,19.58
2022-08-19T04:37:35.753Z,19.63
2022-08-19T04:41:03.147Z,19.67
2022-08-19T04:44:09.818Z,19.76
2022-08-19T04:47:15.803Z,19.86
2022-08-19T04:50:44.939Z,19.94
2022-08-19T04:53:52.002Z,20.06
2022-08-19T04:56:58.099Z,20.20
2022-08-19T05:00:04.217Z,20.33
2022-08-19T05:03:10.401Z,20.54
2022-08-19T05:06:17.368Z,20.87
2022-08-19T05:09:23.398Z,21.12
2022-08-19T05:12:30.520Z,21.41
2022-08-19T05:15:37.409Z,21.66
2022-08-19T05:19:03.373Z,21.91
2022-08-19T05:22:28.651Z,22.09
2022-08-19T05:25:35.462Z,22.36
2022-08-19T05:28:41.532Z,22.64
2022-08-19T05:31:49.034Z,22.92
2022-08-19T05:34:55.604Z,23.18
2022-08-19T05:38:01.722Z,23.45
2022-08-19T05:41:11.162Z,23.65
2022-08-19T05:44:19.312Z,23.86
2022-08-19T05:47:25.397Z,24.10
2022-08-19T05:50:32.095Z,24.32
2022-08-19T05:53:43.028Z,24.64
2022-08-19T05:56:49.156Z,24.86
2022-08-19T05:59:58.690Z,25.08
2022-08-19T06:03:09.704Z,25.32
2022-08-19T06:06:23.912Z,25.57
2022-08-19T06:09:29.853Z,25.73
2022-08-19T06:12:37.356Z,26.00
2022-08-19T06:15:45.990Z,26.15
2022-08-19T06:18:56.171Z,26.37
2022-08-19T06:22:03.305Z,26.61
2022-08-19T06:25:11.222Z,26.84
2022-08-19T06:28:17.469Z,27.02
2022-08-19T06:31:33.212Z,27.24
2022-08-19T06:34:42.993Z,27.39
2022-08-19T06:37:49.091Z,27.62
2022-08-19T06:41:17.033Z,27.72
2022-08-19T06:44:25.832Z,27.89
2022-08-19T06:47:32.809Z,27.97
2022-08-19T06:50:39.725Z,28.07
2022-08-19T06:56:55.308Z,28.29
2022-08-19T07:00:02.079Z,28.62
2022-08-19T07:03:13.071Z,28.80
2022-08-19T07:09:52.279Z,29.19
2022-08-19T07:13:19.496Z,29.29
2022-08-19T07:16:28.843Z,29.40
2022-08-19T07:19:35.616Z,29.53
2022-08-19T07:22:41.755Z,29.80
2022-08-19T07:25:53.090Z,29.81
2022-08-19T07:29:09.907Z,29.96
2022-08-19T07:32:15.930Z,29.89
2022-08-19T07:35:30.066Z,29.95
2022-08-19T07:38:37.005Z,30.15
2022-08-19T07:41:49.312Z,30.41
2022-08-19T07:44:55.887Z,30.55
2022-08-19T07:48:24.943Z,30.79
2022-08-19T07:51:36.516Z,31.01
2022-08-19T07:54:58.882Z,31.18
2022-08-19T07:58:05.452Z,31.24
2022-08-19T08:01:20.770Z,31.23
2022-08-19T08:04:49.871Z,31.38
2022-08-19T08:08:16.062Z,31.53
2022-08-19T08:11:24.184Z,31.54
2022-08-19T08:14:36.795Z,31.83
2022-08-19T08:17:49.837Z,31.92
2022-08-19T08:21:15.233Z,31.86
2022-08-19T08:24:22.380Z,32.23
2022-08-19T08:27:53.727Z,32.32
2022-08-19T08:31:01.478Z,32.36
2022-08-19T08:34:07.512Z,32.49
2022-08-19T08:37:13.601Z,32.05
2022-08-19T08:40:26.569Z,31.89
2022-08-19T08:43:45.472Z,31.57
2022-08-19T08:46:58.806Z,31.84
2022-08-19T08:50:17.811Z,31.60
2022-08-19T08:53:31.168Z,31.43
2022-08-19T08:56:44.579Z,31.55
2022-08-19T08:59:53.187Z,31.78
2022-08-19T09:03:01.748Z,32.03
2022-08-19T09:06:26.833Z,32.16
2022-08-19T09:09:46.013Z,32.46
2022-08-19T09:13:02.260Z,32.11
2022-08-19T09:16:27.953Z,31.86
2022-08-19T09:19:34.128Z,31.98
2022-08-19T09:22:40.920Z,32.02
2022-08-19T09:25:52.956Z,32.03
2022-08-19T09:28:59.869Z,32.68
2022-08-19T09:32:06.245Z,33.29
2022-08-19T09:35:33.558Z,33.48
2022-08-19T09:39:04.753Z,33.77
2022-08-19T09:42:30.220Z,34.13
2022-08-19T09:45:54.716Z,33.68
2022-08-19T09:49:06.282Z,34.06
2022-08-19T09:52:13.803Z,33.86
2022-08-19T09:55:21.397Z,33.97
2022-08-19T09:58:32.193Z,33.85
2022-08-19T10:01:38.059Z,34.71
2022-08-19T10:05:05.850Z,35.75
2022-08-19T10:08:14.538Z,35.52
2022-08-19T10:11:28.268Z,35.52
2022-08-19T10:14:53.104Z,35.81
2022-08-19T10:18:01.002Z,35.92
2022-08-19T10:21:11.885Z,35.22
2022-08-19T10:24:17.920Z,34.82
2022-08-19T10:27:26.383Z,34.79
2022-08-19T10:30:38.551Z,34.51
2022-08-19T10:33:53.358Z,34.46
2022-08-19T10:37:10.750Z,34.12
2022-08-19T10:40:18.166Z,33.41
2022-08-19T10:43:24.934Z,32.90
2022-08-19T10:46:34.450Z,32.65
2022-08-19T10:50:03.414Z,32.20
2022-08-19T10:53:11.638Z,31.85
2022-08-19T10:56:38.197Z,31.62
2022-08-19T10:59:45.748Z,31.56
2022-08-19T11:02:53.456Z,31.36
2022-08-19T11:06:03.790Z,31.37
2022-08-19T11:09:10.448Z,31.20
2022-08-19T11:12:17.653Z,31.09
2022-08-19T11:15:24.098Z,30.98
2022-08-19T11:18:30.730Z,30.79
2022-08-19T11:21:38.776Z,30.70
2022-08-19T11:24:45.796Z,30.53
2022-08-19T11:27:52.949Z,30.55
2022-08-19T11:30:59.651Z,30.44
2022-08-19T11:34:07.500Z,30.50
2022-08-19T11:37:13.722Z,30.51
2022-08-19T11:40:19.949Z,30.63
2022-08-19T11:43:28.293Z,30.66
2022-08-19T11:46:34.680Z,30.95
2022-08-19T11:49:41.244Z,30.89
2022-08-19T11:52:48.646Z,30.97
2022-08-19T11:55:57.785Z,30.97
2022-08-19T11:59:04.265Z,30.62
2022-08-19T12:02:10.735Z,30.44
2022-08-19T12:05:17.881Z,30.35
2022-08-19T12:08:24.438Z,30.46
2022-08-19T12:11:34.731Z,30.33
2022-08-19T12:14:42.185Z,30.26
2022-08-19T12:17:48.343Z,30.16
2022-08-19T12:20:58.912Z,30.19
2022-08-19T12:24:07.497Z,30.14
2022-08-19T12:27:13.733Z,29.96
2022-08-19T12:30:41.605Z,29.82
2022-08-19T12:33:48.854Z,29.55
2022-08-19T12:36:55.015Z,29.27
2022-08-19T12:40:01.306Z,29.27
2022-08-19T12:43:14.834Z,29.17
2022-08-19T12:46:26.049Z,28.95
2022-08-19T12:49:53.838Z,29.18
2022-08-19T12:53:04.101Z,29.43
2022-08-19T12:56:12.992Z,29.51
2022-08-19T12:59:20.349Z,29.42
2022-08-19T13:02:26.464Z,29.44
2022-08-19T13:05:37.736Z,29.63
2022-08-19T13:08:46.609Z,29.56
2022-08-19T13:11:52.705Z,29.32
2022-08-19T13:14:59.606Z,28.94
2022-08-19T13:18:06.149Z,28.97
2022-08-19T13:21:15.944Z,28.84
2022-08-19T13:24:22.078Z,28.92
2022-08-19T13:27:34.326Z,29.08
2022-08-19T13:31:07.005Z,29.29
2022-08-19T13:34:17.035Z,29.27
2022-08-19T13:37:44.597Z,29.07
2022-08-19T13:40:52.030Z,28.65
2022-08-19T13:43:58.774Z,28.57
2022-08-19T13:47:10.460Z,28.33
2022-08-19T13:50:18.957Z,28.15
2022-08-19T13:53:25.220Z,27.95
2022-08-19T13:56:31.688Z,27.87
2022-08-19T13:59:37.982Z,27.77
2022-08-19T14:02:45.188Z,27.54
2022-08-19T14:05:51.298Z,27.15
2022-08-19T14:08:57.450Z,26.88
2022-08-19T14:13:11.259Z,26.24
2022-08-19T14:16:18.525Z,25.75
2022-08-19T14:19:24.485Z,25.55
2022-08-19T14:22:41.261Z,25.23
2022-08-19T14:25:48.411Z,25.09
2022-08-19T14:28:54.794Z,24.63
2022-08-19T14:32:00.815Z,24.70
2022-08-19T14:35:09.224Z,24.52
2022-08-19T14:38:18.994Z,24.60
2022-08-19T14:41:48.021Z,24.33
2022-08-19T14:44:54.297Z,24.12
2022-08-19T14:48:02.028Z,24.35
2022-08-19T14:51:09.682Z,24.47
2022-08-19T14:54:15.864Z,24.34
2022-08-19T14:57:21.851Z,24.35
2022-08-19T15:00:28.908Z,24.79
2022-08-19T15:03:35.098Z,25.36
2022-08-19T15:06:41.609Z,25.37
2022-08-19T15:09:47.689Z,25.06
2022-08-19T15:12:55.098Z,25.00
2022-08-19T15:16:02.911Z,24.79
2022-08-19T15:19:25.152Z,24.67
2022-08-19T15:22:32.894Z,24.47
2022-08-19T15:25:40.256Z,24.40
2022-08-19T15:28:49.212Z,24.25
2022-08-19T15:31:58.811Z,24.01
2022-08-19T15:35:09.833Z,23.95
2022-08-19T15:38:19.132Z,23.87
2022-08-19T15:41:32.137Z,23.74
2022-08-19T15:44:41.950Z,23.73
2022-08-19T15:47:50.578Z,23.57
2022-08-19T15:50:58.153Z,23.55
2022-08-19T15:54:08.229Z,23.32
2022-08-19T15:57:24.134Z,23.21
2022-08-19T16:00:51.552Z,23.16
2022-08-19T16:04:40.972Z,23.07
2022-08-19T16:07:48.973Z,22.98
2022-08-19T16:10:55.796Z,22.85
2022-08-19T16:14:03.476Z,22.99
2022-08-19T16:17:12.672Z,23.12
2022-08-19T16:20:19.043Z,23.23
2022-08-19T16:23:27.759Z,23.20
2022-08-19T16:26:35.574Z,23.24
2022-08-19T16:29:41.784Z,23.08
2022-08-19T16:32:47.601Z,23.18
2022-08-19T16:36:00.154Z,23.36
2022-08-19T16:39:22.927Z,23.46
2022-08-19T16:42:29.026Z,23.59
2022-08-19T16:45:35.001Z,23.53
2022-08-19T16:48:43.849Z,23.44
2022-08-19T16:51:50.098Z,23.57
2022-08-19T16:54:56.376Z,23.77
2022-08-19T16:58:05.746Z,23.94
2022-08-19T17:01:13.078Z,24.02
2022-08-19T17:04:23.417Z,24.04
2022-08-19T17:07:33.217Z,24.05
2022-08-19T17:10:45.575Z,24.09
2022-08-19T17:14:09.488Z,23.95
2022-08-19T17:17:15.609Z,23.95
2022-08-19T17:20:22.934Z,23.87
2022-08-19T17:23:42.372Z,23.75
2022-08-19T17:26:58.655Z,23.64
2022-08-19T17:30:07.635Z,23.65
2022-08-19T17:33:13.825Z,23.52
2022-08-19T17:36:24.136Z,23.36
2022-08-19T17:39:30.533Z,23.29
2022-08-19T17:42:58.119Z,23.24
2022-08-19T17:46:05.751Z,23.18
2022-08-19T17:49:12.318Z,23.04
2022-08-19T17:52:18.503Z,22.98
2022-08-19T17:55:25.955Z,22.91
2022-08-19T17:58:31.829Z,22.81
2022-08-19T18:01:53.916Z,22.69
2022-08-19T18:05:08.070Z,22.46
2022-08-19T18:08:14.595Z,22.41
2022-08-19T18:11:21.031Z,22.43
2022-08-19T18:14:33.963Z,22.46
2022-08-19T18:17:41.060Z,22.36
2022-08-19T18:20:47.236Z,22.37
2022-08-19T18:23:53.221Z,22.27
2022-08-19T18:27:22.541Z,22.18
2022-08-19T18:30:35.608Z,22.12
2022-08-19T18:33:44.389Z,22.05
2022-08-19T18:36:53.871Z,21.97
2022-08-19T18:40:21.199Z,21.87
2022-08-19T18:43:47.429Z,21.82
2022-08-19T18:47:15.332Z,21.83
2022-08-19T18:50:22.621Z,21.83
2022-08-19T18:53:31.529Z,21.86
2022-08-19T18:56:40.089Z,21.85
2022-08-19T18:59:48.737Z,21.85
2022-08-19T19:02:55.304Z,21.84
2022-08-19T19:06:02.444Z,21.83
2022-08-19T19:09:11.370Z,21.85
2022-08-19T19:12:19.349Z,21.85
2022-08-19T19:15:25.194Z,21.88
2022-08-19T19:18:32.489Z,21.88
2022-08-19T19:21:38.279Z,21.75
2022-08-19T19:24:47.490Z,21.81
2022-08-19T19:27:55.725Z,21.85
2022-08-19T19:31:02.735Z,21.85
2022-08-19T19:34:29.265Z,21.84
2022-08-19T19:37:37.039Z,21.65
2022-08-19T19:40:43.220Z,21.47
2022-08-19T19:43:59.919Z,21.49
2022-08-19T19:47:20.276Z,21.50
2022-08-19T19:50:32.048Z,21.55
2022-08-19T19:53:38.171Z,21.59
2022-08-19T19:56:46.378Z,21.51
2022-08-19T19:59:52.201Z,21.39
2022-08-19T20:02:58.814Z,21.37
2022-08-19T20:06:05.413Z,21.36
2022-08-19T20:09:14.221Z,21.39
2022-08-19T20:12:23.892Z,21.41
2022-08-19T20:15:32.082Z,21.38
2022-08-19T20:18:40.012Z,21.36
2022-08-19T20:21:50.797Z,21.32
2022-08-19T20:24:57.805Z,21.29
2022-08-19T20:28:07.059Z,21.34
2022-08-19T20:31:13.295Z,21.39
2022-08-19T20:34:19.439Z,21.29
2022-08-19T20:37:26.616Z,21.29
2022-08-19T20:40:34.877Z,21.23
2022-08-19T20:43:41.323Z,21.29
2022-08-19T20:46:54.701Z,21.32
2022-08-19T20:50:17.774Z,21.34
2022-08-19T20:53:25.469Z,21.34
2022-08-19T20:56:31.633Z,21.35
2022-08-19T20:59:39.136Z,21.39
2022-08-19T21:02:45.694Z,21.40
2022-08-19T21:05:52.949Z,21.38
2022-08-19T21:08:58.921Z,21.36
2022-08-19T21:12:06.790Z,21.40
2022-08-19T21:15:13.020Z,21.41
2022-08-19T21:18:21.444Z,21.43
2022-08-19T21:21:27.722Z,21.44
2022-08-19T21:24:34.087Z,21.47
2022-08-19T21:27:39.970Z,21.48
2022-08-19T21:30:46.870Z,21.53
2022-08-19T21:33:52.607Z,21.48
2022-08-19T21:36:59.008Z,21.37
2022-08-19T21:40:06.223Z,21.31
2022-08-19T21:43:12.349Z,21.40
2022-08-19T21:46:18.371Z,21.45
2022-08-19T21:49:24.971Z,21.54
2022-08-19T21:52:31.651Z,21.67
2022-08-19T21:55:52.856Z,21.81
2022-08-19T21:59:15.345Z,21.81
2022-08-19T22:02:21.931Z,21.79
2022-08-19T22:05:29.289Z,21.77
2022-08-19T22:08:35.774Z,21.66
2022-08-19T22:11:43.953Z,21.58
2022-08-19T22:14:51.213Z,21.65
2022-08-19T22:17:59.347Z,21.71
2022-08-19T22:21:11.379Z,21.67
2022-08-19T22:24:17.843Z,21.64
2022-08-19T22:27:23.749Z,21.56
2022-08-19T22:30:33.273Z,21.53
2022-08-19T22:33:40.406Z,21.48
2022-08-19T22:36:46.410Z,21.44
2022-08-19T22:39:53.188Z,21.35
2022-08-19T22:43:04.344Z,21.30
2022-08-19T22:46:16.802Z,21.15
2022-08-19T22:49:39.086Z,20.96
2022-08-19T22:52:52.023Z,20.81
2022-08-19T22:56:15.533Z,20.78
2022-08-19T22:59:22.165Z,20.69
2022-08-19T23:02:35.265Z,20.53
2022-08-19T23:05:41.883Z,20.48
2022-08-19T23:08:48.063Z,20.46
2022-08-19T23:11:54.773Z,20.35
2022-08-19T23:15:14.362Z,20.36
2022-08-19T23:18:21.087Z,20.36
2022-08-19T23:21:27.579Z,20.20
2022-08-19T23:24:33.598Z,20.13
2022-08-19T23:28:00.496Z,20.11
2022-08-19T23:31:08.325Z,20.15
2022-08-19T23:34:14.173Z,20.10
2022-08-19T23:37:20.403Z,19.90
2022-08-19T23:40:28.554Z,19.94
2022-08-19T23:43:35.265Z,19.89
2022-08-19T23:46:54.409Z,19.87
2022-08-19T23:50:10.212Z,19.82
2022-08-19T23:53:16.758Z,19.81
2022-08-19T23:56:23.277Z,19.79
2022-08-19T23:59:29.577Z,19.74
